Time;durP1;ratioP1;P1;durP2;ratioP2;P2;SDS_P1;SDS_P2;PMS_P1;PMS_P2;Temp;Humidity;BMP_temperature;BMP_pressure;BME280_temperature;BME280_humidity;BME280_pressure;Samples;Min_cycle;Max_cycle;Signal;HPM_P1;HPM_P2
2021/01/02 00:02:33;;;;;;;39.63;19.23;;;;;;;3.25;77.59;100391.56;5019940;28;20198;-67
2021/01/02 00:05:09;;;;;;;36.17;19.47;;;;;;;3.25;78.06;100394.19;5021488;28;20872;-67
2021/01/02 00:08:12;;;;;;;39.80;18.20;;;;;;;3.25;77.34;100394.19;5020042;28;20217;-64
2021/01/02 00:11:12;;;;;;;38.67;19.17;;;;;;;3.24;77.49;100388.97;5017715;28;20711;-65
2021/01/02 00:13:50;;;;;;;40.10;18.83;;;;;;;3.23;77.71;100393.38;4975292;28;20230;-65
2021/01/02 00:16:39;;;;;;;39.17;19.10;;;;;;;3.23;77.08;100397.78;5025710;28;20290;-66
2021/01/02 00:19:07;;;;;;;36.27;17.53;;;;;;;3.22;77.16;100394.34;5017987;28;20231;-64
2021/01/02 00:21:44;;;;;;;35.90;17.13;;;;;;;3.23;77.43;100397.78;5023341;28;20235;-65
2021/01/02 00:24:32;;;;;;;40.97;18.73;;;;;;;3.22;77.30;100404.84;5021059;28;20674;-65
2021/01/02 00:27:09;;;;;;;40.37;18.67;;;;;;;3.22;77.58;100401.38;5028042;28;20206;-65
2021/01/02 00:30:08;;;;;;;39.13;19.03;;;;;;;3.21;77.06;100400.50;5024832;28;20202;-65
2021/01/02 00:32:47;;;;;;;35.90;17.83;;;;;;;3.22;76.96;100401.38;5028705;28;20230;-65
2021/01/02 00:35:21;;;;;;;38.73;18.67;;;;;;;3.21;77.11;100397.88;5034034;28;20205;-66
2021/01/02 00:37:54;;;;;;;38.50;17.93;;;;;;;3.20;77.46;100404.06;5028204;28;20293;-65
2021/01/02 00:40:20;;;;;;;42.37;19.00;;;;;;;3.20;77.82;100404.06;5023682;28;20203;-65
2021/01/02 00:42:48;;;;;;;42.87;19.57;;;;;;;3.21;77.80;100399.66;5029454;28;20718;-66
2021/01/02 00:45:17;;;;;;;35.80;18.83;;;;;;;3.20;77.46;100403.19;5019378;28;20743;-64
2021/01/02 00:47:44;;;;;;;41.63;19.30;;;;;;;3.20;77.77;100406.69;5029294;28;20211;-66
2021/01/02 00:50:12;;;;;;;38.67;18.40;;;;;;;3.19;77.05;100402.34;5024849;28;20735;-67
2021/01/02 00:52:59;;;;;;;35.87;18.40;;;;;;;3.20;77.90;100413.72;5021860;28;20219;-65
2021/01/02 00:55:50;;;;;;;36.47;18.80;;;;;;;3.17;77.07;100412.06;5022049;28;20290;-65
2021/01/02 00:58:28;;;;;;;34.67;18.13;;;;;;;3.16;76.96;100412.97;5029781;28;20642;-64
2021/01/02 01:01:01;;;;;;;38.03;18.80;;;;;;;3.15;77.00;100408.63;5028910;28;20213;-65
2021/01/02 01:03:47;;;;;;;35.07;19.33;;;;;;;3.14;77.91;100410.38;5020317;28;20233;-64
2021/01/02 01:06:16;;;;;;;38.93;18.87;;;;;;;3.14;77.40;100414.78;5032781;28;20209;-64
2021/01/02 01:08:45;;;;;;;34.47;17.77;;;;;;;3.14;77.83;100415.66;5035793;28;20202;-65
2021/01/02 01:11:12;;;;;;;36.80;18.53;;;;;;;3.13;77.86;100418.34;5031635;28;20202;-65
2021/01/02 01:13:39;;;;;;;34.03;18.07;;;;;;;3.12;77.99;100420.09;5029568;28;20229;-65
2021/01/02 01:16:06;;;;;;;37.93;19.30;;;;;;;3.11;77.04;100426.28;5040056;28;20210;-67
2021/01/02 01:18:55;;;;;;;33.93;18.03;;;;;;;3.09;77.47;100428.09;5037748;28;20318;-66
2021/01/02 01:21:27;;;;;;;36.67;18.70;;;;;;;3.09;77.82;100428.09;5037409;28;20265;-65
2021/01/02 01:24:08;;;;;;;41.17;18.53;;;;;;;3.08;77.36;100423.75;5038018;28;20222;-66
2021/01/02 01:26:44;;;;;;;32.57;17.80;;;;;;;3.09;77.29;100427.25;5044372;28;20257;-66
2021/01/02 01:29:18;;;;;;;35.30;18.23;;;;;;;3.08;77.63;100442.19;5038188;28;20198;-66
2021/01/02 01:31:47;;;;;;;39.40;19.70;;;;;;;3.08;77.28;100433.44;5037523;28;20201;-64
2021/01/02 01:34:21;;;;;;;39.00;18.70;;;;;;;3.08;77.90;100441.31;5037209;28;20225;-66
2021/01/02 01:36:48;;;;;;;34.83;17.40;;;;;;;3.06;77.92;100433.47;5031292;28;20211;-66
2021/01/02 01:39:15;;;;;;;34.87;18.40;;;;;;;3.06;77.75;100444.00;5041841;28;20226;-66
2021/01/02 01:41:44;;;;;;;36.20;18.07;;;;;;;3.06;78.19;100443.16;5041017;28;20202;-66
2021/01/02 01:44:41;;;;;;;41.37;19.00;;;;;;;3.05;77.83;100442.28;5022731;28;20230;-65
2021/01/02 01:47:18;;;;;;;37.77;19.03;;;;;;;3.06;78.13;100451.03;5025055;28;20264;-65
2021/01/02 01:50:27;;;;;;;38.20;17.77;;;;;;;3.04;78.03;100445.00;5026004;28;20573;-66
2021/01/02 01:53:36;;;;;;;35.90;18.70;;;;;;;3.01;78.07;100440.69;5016771;28;20730;-65
2021/01/02 01:56:13;;;;;;;38.53;18.67;;;;;;;3.00;77.81;100440.75;5023874;28;20287;-66
2021/01/02 01:59:06;;;;;;;31.97;17.00;;;;;;;2.99;77.46;100441.66;5017589;28;20236;-65
2021/01/02 02:01:37;;;;;;;39.03;19.93;;;;;;;2.94;77.84;100438.31;5019314;28;20210;-64
2021/01/02 02:04:43;;;;;;;38.83;19.03;;;;;;;2.94;78.22;100435.69;5018245;28;20710;-66
2021/01/02 02:07:16;;;;;;;38.23;19.43;;;;;;;2.88;77.39;100430.63;5018500;28;20202;-66
2021/01/02 02:09:43;;;;;;;37.57;18.53;;;;;;;2.85;77.94;100446.56;5027175;28;20231;-66
2021/01/02 02:12:21;;;;;;;39.63;20.07;;;;;;;2.81;78.13;100434.41;5015732;28;20210;-65
2021/01/02 02:14:54;;;;;;;41.63;18.50;;;;;;;2.78;77.82;100444.13;5020918;28;21031;-66
2021/01/02 02:17:25;;;;;;;43.43;19.83;;;;;;;2.77;78.56;100446.81;5019190;28;20210;-66
2021/01/02 02:19:55;;;;;;;36.63;19.27;;;;;;;2.74;77.55;100447.78;5021629;28;20292;-66
2021/01/02 02:22:24;;;;;;;37.83;19.23;;;;;;;2.71;77.93;100442.59;5016287;28;20210;-66
2021/01/02 02:24:52;;;;;;;32.77;18.80;;;;;;;2.68;78.12;100441.88;5020569;28;20203;-66
2021/01/02 02:27:25;;;;;;;39.90;18.87;;;;;;;2.66;78.16;100449.81;5018996;28;20283;-65
2021/01/02 02:30:13;;;;;;;38.10;18.60;;;;;;;2.64;78.23;100445.53;5037538;28;20198;-66
2021/01/02 02:32:42;;;;;;;42.03;19.93;;;;;;;2.61;78.33;100448.25;5016312;28;20691;-66
2021/01/02 02:35:15;;;;;;;40.70;20.27;;;;;;;2.60;78.00;100451.78;5028955;28;20212;-66
2021/01/02 02:37:46;;;;;;;42.23;19.70;;;;;;;2.57;78.87;100452.75;5033948;28;20203;-66
2021/01/02 02:40:17;;;;;;;42.50;18.63;;;;;;;2.57;78.91;100465.03;5028471;28;20237;-64
2021/01/02 02:42:47;;;;;;;41.93;18.87;;;;;;;2.54;78.63;100452.84;5032110;28;20235;-66
2021/01/02 02:45:15;;;;;;;38.70;19.80;;;;;;;2.54;78.42;100459.88;5036728;28;20210;-65
2021/01/02 02:47:44;;;;;;;46.17;20.33;;;;;;;2.53;78.69;100469.53;5035363;28;20238;-67
2021/01/02 02:50:18;;;;;;;38.37;18.93;;;;;;;2.52;79.00;100467.81;5029034;28;20198;-66
2021/01/02 02:52:47;;;;;;;40.53;19.63;;;;;;;2.53;78.47;100473.91;5027054;28;20267;-66
2021/01/02 02:55:14;;;;;;;40.90;20.07;;;;;;;2.51;78.68;100455.56;5029794;28;20758;-65
2021/01/02 02:57:48;;;;;;;43.40;20.17;;;;;;;2.52;79.57;100457.28;5035589;28;20221;-65
2021/01/02 03:00:16;;;;;;;42.93;20.23;;;;;;;2.52;78.65;100459.91;5035507;28;20284;-66
2021/01/02 03:02:46;;;;;;;40.40;19.60;;;;;;;2.52;79.23;100459.91;5020232;28;20703;-65
2021/01/02 03:05:14;;;;;;;42.07;20.67;;;;;;;2.54;79.10;100460.72;5029452;28;20686;-65
2021/01/02 03:07:42;;;;;;;44.00;19.80;;;;;;;2.54;79.26;100459.88;5031139;28;20682;-65
2021/01/02 03:10:10;;;;;;;42.70;20.67;;;;;;;2.54;79.82;100466.00;5034940;28;20208;-65
2021/01/02 03:12:40;;;;;;;40.07;21.20;;;;;;;2.56;79.91;100463.31;5019431;28;20797;-66
2021/01/02 03:15:09;;;;;;;42.53;22.27;;;;;;;2.57;79.68;100468.53;5029748;28;20232;-66
2021/01/02 03:17:35;;;;;;;44.33;20.83;;;;;;;2.57;79.28;100460.63;5022981;28;20202;-66
2021/01/02 03:20:01;;;;;;;44.97;21.33;;;;;;;2.59;79.65;100468.47;5014536;28;20230;-66
2021/01/02 03:22:27;;;;;;;49.83;23.13;;;;;;;2.58;80.11;100466.75;5029621;28;20305;-65
2021/01/02 03:24:53;;;;;;;42.93;21.33;;;;;;;2.60;79.70;100464.94;5026437;28;20203;-67
2021/01/02 03:27:19;;;;;;;44.87;22.13;;;;;;;2.61;79.70;100466.66;5029663;28;20293;-65
2021/01/02 03:29:45;;;;;;;46.90;21.60;;;;;;;2.60;79.78;100465.78;5035012;28;20576;-66
2021/01/02 03:32:12;;;;;;;44.60;22.13;;;;;;;2.63;79.96;100470.09;5029921;28;20210;-66
2021/01/02 03:34:38;;;;;;;43.77;21.70;;;;;;;2.64;79.63;100477.06;5029987;28;20628;-66
2021/01/02 03:37:04;;;;;;;44.93;22.57;;;;;;;2.64;80.15;100472.69;5017340;28;20226;-66
2021/01/02 03:39:30;;;;;;;42.40;22.53;;;;;;;2.64;80.20;100467.41;5028908;28;20221;-66
2021/01/02 03:41:56;;;;;;;40.73;21.67;;;;;;;2.64;80.53;100469.19;5042757;28;20206;-66
2021/01/02 03:44:23;;;;;;;45.10;23.00;;;;;;;2.65;80.51;100473.53;5031972;28;20233;-66
2021/01/02 03:46:49;;;;;;;43.23;21.43;;;;;;;2.64;80.24;100469.19;5030692;28;20229;-66
2021/01/02 03:49:16;;;;;;;43.47;22.87;;;;;;;2.63;79.75;100472.72;5015408;28;20290;-66
2021/01/02 03:51:42;;;;;;;42.77;21.47;;;;;;;2.61;80.02;100474.53;5031431;28;20210;-66
2021/01/02 03:54:08;;;;;;;41.03;20.80;;;;;;;2.58;80.25;100478.13;5031387;28;20230;-66
2021/01/02 03:56:34;;;;;;;41.70;21.37;;;;;;;2.59;79.74;100479.00;5029376;28;20209;-66
2021/01/02 03:59:00;;;;;;;39.37;21.20;;;;;;;2.55;80.40;100472.09;5019288;28;20716;-65
2021/01/02 04:01:26;;;;;;;41.53;21.83;;;;;;;2.54;80.04;100483.53;5026823;28;20216;-65
2021/01/02 04:03:52;;;;;;;42.13;20.87;;;;;;;2.52;80.69;100482.72;5030408;28;20279;-65
2021/01/02 04:06:25;;;;;;;41.03;20.17;;;;;;;2.50;79.89;100477.53;5028351;28;20202;-66
2021/01/02 04:08:51;;;;;;;38.40;19.63;;;;;;;2.48;80.57;100471.47;5031342;28;20260;-65
2021/01/02 04:11:17;;;;;;;41.13;21.10;;;;;;;2.46;79.70;100475.06;5014863;28;20203;-63
2021/01/02 04:13:43;;;;;;;40.80;20.73;;;;;;;2.44;80.28;100477.72;5031707;28;20234;-66
2021/01/02 04:16:09;;;;;;;41.20;20.97;;;;;;;2.41;80.40;100470.81;5030402;28;20678;-66
2021/01/02 04:18:35;;;;;;;39.03;19.17;;;;;;;2.38;80.05;100475.28;5028787;28;20256;-66
2021/01/02 04:21:01;;;;;;;40.27;19.40;;;;;;;2.36;80.04;100466.59;5031709;28;20605;-67
2021/01/02 04:23:28;;;;;;;36.83;18.83;;;;;;;2.34;80.08;100477.16;5029674;28;20647;-66
2021/01/02 04:25:54;;;;;;;35.83;20.37;;;;;;;2.32;79.78;100475.50;5030168;28;20214;-66
2021/01/02 04:28:20;;;;;;;36.07;18.27;;;;;;;2.30;79.68;100472.94;5027956;28;20207;-65
2021/01/02 04:30:46;;;;;;;34.57;18.90;;;;;;;2.29;80.55;100465.09;5030006;28;20206;-65
2021/01/02 04:33:12;;;;;;;35.47;18.33;;;;;;;2.28;80.25;100476.50;5030640;28;20233;-66
2021/01/02 04:35:38;;;;;;;37.97;18.57;;;;;;;2.27;80.35;100478.28;5029238;28;20209;-66
2021/01/02 04:38:04;;;;;;;38.13;20.03;;;;;;;2.26;79.96;100476.56;5030672;28;20206;-66
2021/01/02 04:40:31;;;;;;;42.77;21.17;;;;;;;2.25;80.46;100479.22;5033894;28;20232;-66
2021/01/02 04:42:58;;;;;;;37.93;19.47;;;;;;;2.23;80.41;100474.03;5058692;22;20213;-68
2021/01/02 04:45:25;;;;;;;40.27;20.27;;;;;;;2.23;80.00;100481.03;5053090;28;20201;-66
2021/01/02 04:47:51;;;;;;;40.00;20.10;;;;;;;2.22;79.80;100485.44;5052273;28;20255;-68
2021/01/02 04:50:18;;;;;;;42.80;20.47;;;;;;;2.21;79.83;100477.59;5053819;28;20202;-68
2021/01/02 04:52:46;;;;;;;31.73;18.60;;;;;;;2.23;79.90;100486.31;5052879;28;20209;-67
2021/01/02 04:55:16;;;;;;;34.10;17.70;;;;;;;2.24;80.21;100482.75;5052571;28;20209;-68
2021/01/02 04:57:46;;;;;;;37.97;18.60;;;;;;;2.25;79.85;100485.34;5051650;28;20212;-67
2021/01/02 05:00:15;;;;;;;39.87;19.30;;;;;;;2.28;80.60;100489.66;5054490;28;20249;-67
2021/01/02 05:02:44;;;;;;;36.73;19.37;;;;;;;2.29;80.75;100480.88;5042491;28;20642;-67
2021/01/02 05:05:11;;;;;;;40.23;18.70;;;;;;;2.31;80.43;100482.53;5043848;28;20208;-68
2021/01/02 05:07:37;;;;;;;33.60;19.13;;;;;;;2.31;80.15;100476.41;5042845;28;20655;-68
2021/01/02 05:10:04;;;;;;;38.73;18.63;;;;;;;2.32;80.47;100475.50;5051072;28;20202;-68
2021/01/02 05:12:32;;;;;;;34.53;18.10;;;;;;;2.34;80.08;100478.91;5047732;28;20206;-68
2021/01/02 05:15:05;;;;;;;40.27;19.23;;;;;;;2.32;80.92;100475.50;5052516;28;20231;-68
2021/01/02 05:17:32;;;;;;;39.93;18.63;;;;;;;2.31;80.63;100482.53;5053584;28;20278;-68
2021/01/02 05:20:08;;;;;;;38.80;19.30;;;;;;;2.29;80.14;100483.50;5053601;28;20590;-69
2021/01/02 05:22:35;;;;;;;34.17;18.53;;;;;;;2.27;80.08;100482.69;5052473;28;20654;-68
2021/01/02 05:25:07;;;;;;;41.23;19.30;;;;;;;2.23;80.25;100470.53;5042209;28;20591;-68
2021/01/02 05:27:34;;;;;;;33.97;18.60;;;;;;;2.22;80.84;100468.81;5044915;28;20206;-68
2021/01/02 05:30:19;;;;;;;36.50;17.63;;;;;;;2.18;80.02;100475.06;5060060;28;20202;-68
2021/01/02 05:33:03;;;;;;;37.23;19.27;;;;;;;2.17;80.33;100475.97;5045511;28;20284;-67
2021/01/02 05:35:33;;;;;;;34.53;17.77;;;;;;;2.16;80.20;100475.13;5050000;28;20209;-67
2021/01/02 05:38:16;;;;;;;32.60;16.87;;;;;;;2.14;80.29;100476.97;5043080;28;20210;-67
2021/01/02 05:40:45;;;;;;;35.03;18.00;;;;;;;2.12;80.85;100483.16;5058574;28;20226;-68
2021/01/02 05:43:12;;;;;;;39.53;18.90;;;;;;;2.11;80.73;100473.56;5051110;28;20233;-68
2021/01/02 05:45:40;;;;;;;43.67;19.37;;;;;;;2.09;80.57;100477.09;5050752;28;20201;-68
2021/01/02 05:48:18;;;;;;;40.30;19.97;;;;;;;2.08;80.15;100483.25;5041783;28;20728;-67
2021/01/02 05:50:46;;;;;;;34.17;17.53;;;;;;;2.08;80.77;100477.13;5051221;28;20205;-67
2021/01/02 05:53:27;;;;;;;34.37;17.70;;;;;;;2.07;80.40;100483.31;5052803;28;20221;-68
2021/01/02 05:56:04;;;;;;;36.57;19.37;;;;;;;2.07;80.27;100489.41;5050328;28;20218;-68
2021/01/02 05:58:32;;;;;;;38.67;18.93;;;;;;;2.04;80.75;100494.75;5052639;28;20209;-65
2021/01/02 06:01:07;;;;;;;34.33;18.63;;;;;;;2.01;80.58;100496.63;5052983;28;20212;-68
2021/01/02 06:03:35;;;;;;;41.90;18.50;;;;;;;1.99;80.72;100493.16;5038641;28;20603;-68
2021/01/02 06:06:04;;;;;;;34.50;17.17;;;;;;;1.97;80.36;100500.25;5053400;28;20208;-68
2021/01/02 06:08:32;;;;;;;36.83;18.87;;;;;;;1.96;80.25;100498.53;5058697;28;20211;-68
2021/01/02 06:11:01;;;;;;;34.67;18.80;;;;;;;1.94;80.80;100500.34;5053428;28;20213;-68
2021/01/02 06:13:29;;;;;;;37.77;19.77;;;;;;;1.93;80.88;100511.75;5047318;28;20229;-68
2021/01/02 06:15:58;;;;;;;38.80;19.73;;;;;;;1.91;80.40;100511.81;5043346;28;20549;-68
2021/01/02 06:18:27;;;;;;;40.30;19.60;;;;;;;1.90;80.57;100515.34;5044239;28;21921;-68
2021/01/02 06:20:56;;;;;;;41.40;19.47;;;;;;;1.88;80.86;100511.03;5053112;28;20213;-68
2021/01/02 06:23:24;;;;;;;40.03;19.50;;;;;;;1.88;80.32;100517.16;5052009;28;20725;-67
2021/01/02 06:25:52;;;;;;;42.80;19.10;;;;;;;1.86;80.67;100516.31;5053064;28;20206;-68
2021/01/02 06:28:19;;;;;;;40.53;20.27;;;;;;;1.86;80.72;100515.47;5042998;28;20213;-67
2021/01/02 06:30:45;;;;;;;40.77;19.47;;;;;;;1.85;80.51;100522.47;5052947;28;20201;-68
2021/01/02 06:33:15;;;;;;;39.03;20.00;;;;;;;1.84;80.34;100526.00;5051538;28;20286;-68
2021/01/02 06:35:42;;;;;;;36.33;18.83;;;;;;;1.85;80.62;100522.47;5047417;28;20658;-68
2021/01/02 06:38:15;;;;;;;41.23;19.90;;;;;;;1.86;80.96;100528.59;5053028;28;20206;-68
2021/01/02 06:40:46;;;;;;;41.27;20.50;;;;;;;1.86;81.02;100534.72;5051957;28;20230;-68
2021/01/02 06:43:14;;;;;;;37.40;19.20;;;;;;;1.88;81.30;100526.78;5051500;28;20240;-68
2021/01/02 06:46:01;;;;;;;44.47;20.60;;;;;;;1.88;81.06;100538.16;5052041;28;20231;-68
2021/01/02 06:48:41;;;;;;;38.53;18.90;;;;;;;1.88;81.41;100540.78;5052822;28;20205;-68
2021/01/02 06:51:41;;;;;;;36.50;18.80;;;;;;;1.89;81.49;100537.25;5054515;28;20202;-68
2021/01/02 06:54:22;;;;;;;39.57;19.27;;;;;;;1.88;81.77;100542.53;4971738;28;20229;-68
2021/01/02 06:57:03;;;;;;;41.87;19.83;;;;;;;1.85;80.86;100553.13;4971283;28;20376;-68
2021/01/02 06:59:30;;;;;;;36.60;18.43;;;;;;;1.83;81.35;100549.69;5025243;28;20231;-68
2021/01/02 07:01:56;;;;;;;39.83;19.27;;;;;;;1.80;81.11;100560.28;5051688;28;20232;-68
2021/01/02 07:04:37;;;;;;;42.57;19.97;;;;;;;1.77;81.45;100558.63;5044484;28;20232;-68
2021/01/02 07:07:05;;;;;;;33.07;18.47;;;;;;;1.78;81.55;100562.13;5050741;28;20201;-67
2021/01/02 07:09:31;;;;;;;42.30;20.67;;;;;;;1.77;81.76;100561.25;5042327;28;20576;-66
2021/01/02 07:12:32;;;;;;;41.93;20.43;;;;;;;1.78;81.33;100557.72;5051854;28;20690;-68
2021/01/02 07:15:07;;;;;;;42.53;20.23;;;;;;;1.79;81.11;100562.06;5051912;28;20239;-68
2021/01/02 07:17:33;;;;;;;39.37;19.70;;;;;;;1.79;81.44;100554.19;5052765;28;20201;-68
2021/01/02 07:20:04;;;;;;;38.70;19.67;;;;;;;1.79;81.81;100564.69;5051113;28;20788;-68
2021/01/02 07:22:32;;;;;;;37.70;18.30;;;;;;;1.81;81.31;100564.63;5051620;28;20209;-68
2021/01/02 07:25:04;;;;;;;41.70;20.30;;;;;;;1.83;81.97;100558.44;5051527;28;20730;-67
2021/01/02 07:27:32;;;;;;;43.70;20.47;;;;;;;1.88;82.14;100563.56;5039516;28;20616;-69
2021/01/02 07:30:04;;;;;;;41.97;20.33;;;;;;;1.90;81.53;100562.59;5033530;28;20198;-68
2021/01/02 07:32:31;;;;;;;43.53;20.57;;;;;;;1.96;81.93;100562.44;5055854;28;20213;-68
2021/01/02 07:34:59;;;;;;;42.67;19.87;;;;;;;2.02;82.11;100566.63;5051969;28;20217;-66
2021/01/02 07:37:27;;;;;;;47.93;20.37;;;;;;;2.06;82.26;100563.88;5050070;28;20230;-68
2021/01/02 07:39:56;;;;;;;38.60;18.70;;;;;;;2.10;81.89;100562.03;5051549;28;20720;-68
2021/01/02 07:42:24;;;;;;;42.30;20.03;;;;;;;2.14;82.31;100566.28;5048251;28;20206;-66
2021/01/02 07:44:58;;;;;;;36.07;18.47;;;;;;;2.18;82.11;100572.28;5036589;28;20237;-67
2021/01/02 07:47:24;;;;;;;46.83;19.73;;;;;;;2.22;82.23;100573.91;5038237;28;20213;-69
2021/01/02 07:50:01;;;;;;;40.00;19.77;;;;;;;2.25;82.27;100576.44;5041970;28;20276;-68
2021/01/02 07:52:28;;;;;;;38.10;18.70;;;;;;;2.28;81.84;100571.13;5042037;28;20661;-68
2021/01/02 07:54:55;;;;;;;39.83;19.40;;;;;;;2.32;81.67;100570.13;5051388;28;20221;-65
2021/01/02 07:57:25;;;;;;;37.57;19.00;;;;;;;2.36;81.86;100576.97;5049852;28;20206;-68
2021/01/02 07:59:52;;;;;;;37.73;17.73;;;;;;;2.39;81.92;100576.88;5050866;28;20233;-68
2021/01/02 08:02:23;;;;;;;43.43;19.90;;;;;;;2.41;82.42;100581.19;5050170;28;20201;-68
2021/01/02 08:04:51;;;;;;;46.33;22.17;;;;;;;2.44;81.57;100590.75;5038008;28;21281;-68
2021/01/02 08:07:17;;;;;;;36.60;19.30;;;;;;;2.47;81.89;100601.19;5040871;28;20201;-66
2021/01/02 08:09:45;;;;;;;39.60;20.47;;;;;;;2.49;81.98;100598.50;5038511;28;20703;-68
2021/01/02 08:12:13;;;;;;;39.33;18.07;;;;;;;2.52;81.85;100606.28;5043268;28;20213;-66
2021/01/02 08:14:44;;;;;;;39.93;18.47;;;;;;;2.54;82.35;100602.69;5044112;28;20705;-68
2021/01/02 08:17:12;;;;;;;38.53;19.57;;;;;;;2.57;82.39;100609.63;5042053;28;20212;-67
2021/01/02 08:19:42;;;;;;;40.13;19.63;;;;;;;2.59;82.07;100607.81;5045543;28;20225;-68
2021/01/02 08:22:09;;;;;;;38.87;19.53;;;;;;;2.61;81.50;100606.84;5041883;28;20229;-68
2021/01/02 08:24:36;;;;;;;39.70;19.53;;;;;;;2.62;82.08;100612.97;5046222;28;20591;-68
2021/01/02 08:27:03;;;;;;;40.50;19.77;;;;;;;2.63;81.91;100605.03;5044002;28;20201;-67
2021/01/02 08:29:33;;;;;;;38.77;20.13;;;;;;;2.65;81.39;100612.88;5040981;28;20201;-69
2021/01/02 08:32:05;;;;;;;38.60;19.20;;;;;;;2.66;81.84;100604.97;5041706;28;20214;-67
2021/01/02 08:34:33;;;;;;;47.23;22.63;;;;;;;2.67;81.46;100613.72;5046447;28;20228;-68
2021/01/02 08:37:01;;;;;;;41.53;19.90;;;;;;;2.67;81.44;100606.69;5040879;28;20202;-67
2021/01/02 08:39:27;;;;;;;41.23;19.67;;;;;;;2.68;81.33;100608.41;5042322;28;20469;-68
2021/01/02 08:41:55;;;;;;;41.23;19.67;;;;;;;2.72;81.37;100606.50;5039595;28;20263;-68
2021/01/02 08:44:23;;;;;;;39.60;19.97;;;;;;;2.73;81.28;100614.34;5020621;28;587627;-67
2021/01/02 08:46:50;;;;;;;39.20;20.27;;;;;;;2.75;81.31;100624.81;5046130;28;20670;-68
2021/01/02 08:49:30;;;;;;;36.93;18.70;;;;;;;2.77;81.18;100623.88;5046715;28;20514;-68
2021/01/02 08:52:16;;;;;;;43.83;20.60;;;;;;;2.80;80.75;100625.53;5051046;28;20201;-69
2021/01/02 08:54:42;;;;;;;40.53;18.90;;;;;;;2.84;80.75;100636.84;5042249;28;20849;-68
2021/01/02 08:57:31;;;;;;;39.87;19.10;;;;;;;2.85;81.05;100634.16;5041440;28;20210;-68
2021/01/02 09:00:06;;;;;;;40.83;19.80;;;;;;;2.88;81.01;100638.44;5039451;28;20224;-66
2021/01/02 09:02:33;;;;;;;38.00;19.23;;;;;;;2.90;80.87;100647.16;5040449;28;20211;-68
2021/01/02 09:05:07;;;;;;;34.90;18.57;;;;;;;2.92;81.58;100646.19;5043697;28;20643;-67
2021/01/02 09:07:34;;;;;;;38.20;19.13;;;;;;;2.94;81.26;100641.75;5040600;28;20205;-67
2021/01/02 09:10:15;;;;;;;36.60;18.63;;;;;;;2.98;81.53;100650.41;5040843;28;20202;-68
2021/01/02 09:12:42;;;;;;;38.83;18.60;;;;;;;3.01;80.61;100652.94;5041436;28;20238;-68
2021/01/02 09:15:09;;;;;;;39.17;18.27;;;;;;;3.03;81.14;100651.13;5048988;28;20262;-68
2021/01/02 09:17:47;;;;;;;43.53;19.23;;;;;;;3.05;80.67;100652.75;5041559;28;20213;-68
2021/01/02 09:20:18;;;;;;;41.40;19.90;;;;;;;3.08;81.20;100647.41;5048265;28;20221;-68
2021/01/02 09:22:54;;;;;;;39.23;19.23;;;;;;;3.12;80.62;100650.81;5049351;28;20202;-69
2021/01/02 09:25:27;;;;;;;34.07;17.13;;;;;;;3.16;81.31;100659.47;5044857;28;20290;-67
2021/01/02 09:27:53;;;;;;;35.10;18.70;;;;;;;3.18;81.33;100655.88;5053319;28;20231;-67
2021/01/02 09:30:20;;;;;;;36.83;18.70;;;;;;;3.21;81.35;100654.91;5053033;28;20915;-66
2021/01/02 09:32:47;;;;;;;34.93;18.37;;;;;;;3.22;80.52;100652.25;5052522;28;20216;-66
2021/01/02 09:35:13;;;;;;;41.10;19.43;;;;;;;3.25;80.26;100654.75;5052906;28;20203;-68
2021/01/02 09:37:41;;;;;;;38.70;20.07;;;;;;;3.30;80.32;100662.50;5054006;28;20202;-68
2021/01/02 09:40:16;;;;;;;36.13;18.87;;;;;;;3.31;80.53;100657.19;5048541;28;20221;-67
2021/01/02 09:42:42;;;;;;;38.57;18.40;;;;;;;3.36;79.98;100662.31;5048103;28;20209;-67
2021/01/02 09:45:09;;;;;;;32.13;17.37;;;;;;;3.40;80.85;100666.56;5054141;28;20197;-68
2021/01/02 09:47:36;;;;;;;33.23;17.37;;;;;;;3.42;79.88;100665.56;5047591;28;20247;-68
2021/01/02 09:50:03;;;;;;;38.53;17.07;;;;;;;3.46;79.73;100658.44;5049442;28;20205;-66
2021/01/02 09:52:29;;;;;;;31.80;17.23;;;;;;;3.50;79.88;100662.69;5045136;28;20202;-68
2021/01/02 09:54:55;;;;;;;34.70;18.17;;;;;;;3.53;80.09;100659.09;5048645;28;20239;-67
2021/01/02 09:57:22;;;;;;;31.83;16.97;;;;;;;3.55;79.39;100662.53;5046802;28;20214;-68
2021/01/02 09:59:48;;;;;;;37.03;16.87;;;;;;;3.58;79.17;100658.03;5047499;28;20221;-68
2021/01/02 10:02:14;;;;;;;34.63;17.37;;;;;;;3.61;79.89;100659.69;5052593;28;20201;-68
2021/01/02 10:04:43;;;;;;;33.93;18.03;;;;;;;3.64;79.63;100665.69;5043605;28;20666;-67
2021/01/02 10:07:10;;;;;;;32.80;17.13;;;;;;;3.68;79.43;100662.06;5050120;28;20267;-68
2021/01/02 10:09:40;;;;;;;31.90;17.23;;;;;;;3.70;79.14;100662.00;5052175;28;20289;-67
2021/01/02 10:12:07;;;;;;;35.33;17.53;;;;;;;3.72;78.27;100662.81;5051911;28;20198;-67
2021/01/02 10:14:35;;;;;;;31.00;16.37;;;;;;;3.75;78.46;100671.47;5041332;28;20229;-67
2021/01/02 10:17:01;;;;;;;29.80;17.10;;;;;;;3.76;78.70;100667.06;5051746;28;20676;-66
2021/01/02 10:19:27;;;;;;;33.97;17.73;;;;;;;3.77;78.20;100672.25;5046486;28;20710;-67
2021/01/02 10:21:53;;;;;;;37.30;18.23;;;;;;;3.78;78.56;100658.16;5049477;28;20201;-67
2021/01/02 10:24:19;;;;;;;36.00;18.67;;;;;;;3.80;78.01;100658.97;5050530;28;20224;-68
2021/01/02 10:26:45;;;;;;;36.07;18.30;;;;;;;3.86;78.22;100659.69;5051863;28;20201;-67
2021/01/02 10:29:11;;;;;;;45.40;23.23;;;;;;;3.89;77.77;100663.09;5047643;28;20316;-67
2021/01/02 10:31:38;;;;;;;36.67;20.73;;;;;;;3.95;77.80;100668.09;5034772;28;20226;-68
2021/01/02 10:34:06;;;;;;;50.20;22.83;;;;;;;4.00;78.03;100660.03;5040794;28;20218;-67
2021/01/02 10:36:32;;;;;;;43.67;21.57;;;;;;;4.05;77.65;100661.63;5040281;28;20300;-67
2021/01/02 10:38:58;;;;;;;86.37;34.93;;;;;;;4.11;78.16;100661.41;5048297;28;20617;-67
2021/01/02 10:41:24;;;;;;;57.60;27.83;;;;;;;4.16;77.66;100662.06;5043143;28;20569;-67
2021/01/02 10:43:50;;;;;;;44.23;22.03;;;;;;;4.19;77.47;100661.97;5075117;22;20244;-69
2021/01/02 10:46:16;;;;;;;35.53;17.97;;;;;;;4.23;77.62;100657.44;5090253;28;20265;-70
2021/01/02 10:48:43;;;;;;;51.83;24.90;;;;;;;4.27;77.74;100664.31;5090949;28;20196;-69
2021/01/02 10:51:13;;;;;;;28.03;15.53;;;;;;;4.28;77.08;100654.63;5091650;28;20203;-70
2021/01/02 10:53:39;;;;;;;33.00;17.57;;;;;;;4.29;77.01;100657.22;5086981;28;20212;-69
2021/01/02 10:56:09;;;;;;;28.27;16.23;;;;;;;4.30;77.13;100658.09;5089033;28;20201;-67
2021/01/02 10:58:35;;;;;;;31.60;17.23;;;;;;;4.31;76.73;100643.94;5090064;28;20603;-70
2021/01/02 11:01:01;;;;;;;32.07;16.10;;;;;;;4.31;76.34;100654.50;5090333;28;20273;-69
2021/01/02 11:03:27;;;;;;;28.20;14.80;;;;;;;4.32;76.19;100646.53;5081323;28;20208;-69
2021/01/02 11:05:54;;;;;;;25.33;14.27;;;;;;;4.33;75.98;100647.41;5090278;28;20210;-70
2021/01/02 11:08:20;;;;;;;30.07;15.90;;;;;;;4.32;76.20;100645.69;5087288;28;20192;-70
2021/01/02 11:10:46;;;;;;;28.50;15.30;;;;;;;4.33;76.48;100645.63;5090175;28;20204;-69
2021/01/02 11:13:12;;;;;;;30.93;15.70;;;;;;;4.32;76.00;100643.91;5085039;28;20205;-70
2021/01/02 11:15:38;;;;;;;29.37;16.43;;;;;;;4.35;76.09;100643.78;5088679;28;20207;-69
2021/01/02 11:18:05;;;;;;;30.13;14.77;;;;;;;4.39;75.93;100641.91;5090723;28;20200;-70
2021/01/02 11:20:31;;;;;;;25.57;14.37;;;;;;;4.43;75.85;100644.38;5089872;28;20220;-70
2021/01/02 11:22:58;;;;;;;25.53;14.47;;;;;;;4.47;75.97;100637.22;5090404;28;20222;-70
2021/01/02 11:25:24;;;;;;;25.87;15.03;;;;;;;4.50;75.52;100635.28;5084648;28;20238;-70
2021/01/02 11:27:50;;;;;;;25.83;13.73;;;;;;;4.52;75.52;100635.22;5084524;28;20237;-69
2021/01/02 11:30:17;;;;;;;29.60;14.23;;;;;;;4.53;75.79;100639.59;5083075;28;20676;-69
2021/01/02 11:32:43;;;;;;;24.70;15.00;;;;;;;4.56;75.78;100639.47;5089456;28;20200;-69
2021/01/02 11:35:10;;;;;;;26.33;15.07;;;;;;;4.59;75.37;100636.72;5084066;28;20216;-69